sensor_id;sensor_type;location;lat;lon;timestamp;P1;durP1;ratioP1;P2;durP2;ratioP2
24407;SDS011;12542;50.924;4.516;2023-05-10T00:00:23;11.77;;;5.10;;
24407;SDS011;12542;50.924;4.516;2023-05-10T00:02:49;15.02;;;5.90;;
24407;SDS011;12542;50.924;4.516;2023-05-10T00:05:15;13.40;;;6.57;;
24407;SDS011;12542;50.924;4.516;2023-05-10T00:07:40;14.85;;;6.15;;
24407;SDS011;12542;50.924;4.516;2023-05-10T00:10:09;13.55;;;6.25;;
24407;SDS011;12542;50.924;4.516;2023-05-10T00:12:36;12.80;;;5.70;;
24407;SDS011;12542;50.924;4.516;2023-05-10T00:15:01;11.75;;;6.10;;
24407;SDS011;12542;50.924;4.516;2023-05-10T00:17:28;11.35;;;5.80;;
24407;SDS011;12542;50.924;4.516;2023-05-10T00:19:53;14.50;;;6.80;;
24407;SDS011;12542;50.924;4.516;2023-05-10T00:22:22;14.75;;;6.50;;
24407;SDS011;12542;50.924;4.516;2023-05-10T00:24:48;16.73;;;6.90;;
24407;SDS011;12542;50.924;4.516;2023-05-10T00:27:13;19.95;;;7.13;;
24407;SDS011;12542;50.924;4.516;2023-05-10T00:29:39;12.32;;;5.88;;
24407;SDS011;12542;50.924;4.516;2023-05-10T00:32:05;15.98;;;7.20;;
24407;SDS011;12542;50.924;4.516;2023-05-10T00:34:30;17.35;;;7.60;;
24407;SDS011;12542;50.924;4.516;2023-05-10T00:36:56;14.57;;;7.00;;
24407;SDS011;12542;50.924;4.516;2023-05-10T00:39:22;12.35;;;7.10;;
24407;SDS011;12542;50.924;4.516;2023-05-10T00:41:48;16.17;;;7.38;;
24407;SDS011;12542;50.924;4.516;2023-05-10T00:44:13;19.05;;;7.75;;
24407;SDS011;12542;50.924;4.516;2023-05-10T00:46:39;15.65;;;7.45;;
24407;SDS011;12542;50.924;4.516;2023-05-10T00:49:06;17.48;;;8.15;;
24407;SDS011;12542;50.924;4.516;2023-05-10T00:51:32;12.52;;;7.30;;
24407;SDS011;12542;50.924;4.516;2023-05-10T00:53:58;16.30;;;7.97;;
24407;SDS011;12542;50.924;4.516;2023-05-10T00:56:25;14.50;;;8.07;;
24407;SDS011;12542;50.924;4.516;2023-05-10T00:58:51;18.25;;;8.68;;
24407;SDS011;12542;50.924;4.516;2023-05-10T01:01:17;14.65;;;8.05;;
24407;SDS011;12542;50.924;4.516;2023-05-10T01:03:44;15.43;;;8.00;;
24407;SDS011;12542;50.924;4.516;2023-05-10T01:06:10;18.23;;;8.93;;
24407;SDS011;12542;50.924;4.516;2023-05-10T01:08:36;19.17;;;7.97;;
24407;SDS011;12542;50.924;4.516;2023-05-10T01:11:02;17.88;;;7.57;;
24407;SDS011;12542;50.924;4.516;2023-05-10T01:15:57;16.20;;;8.68;;
24407;SDS011;12542;50.924;4.516;2023-05-10T01:18:24;16.92;;;9.18;;
24407;SDS011;12542;50.924;4.516;2023-05-10T01:20:54;13.75;;;8.90;;
24407;SDS011;12542;50.924;4.516;2023-05-10T01:23:41;18.35;;;8.60;;
24407;SDS011;12542;50.924;4.516;2023-05-10T01:32:02;15.63;;;7.75;;
24407;SDS011;12542;50.924;4.516;2023-05-10T01:37:43;17.38;;;9.75;;
24407;SDS011;12542;50.924;4.516;2023-05-10T01:40:26;17.63;;;8.70;;
24407;SDS011;12542;50.924;4.516;2023-05-10T01:43:02;18.77;;;9.18;;
24407;SDS011;12542;50.924;4.516;2023-05-10T01:50:40;16.55;;;9.15;;
24407;SDS011;12542;50.924;4.516;2023-05-10T01:53:09;19.85;;;9.38;;
24407;SDS011;12542;50.924;4.516;2023-05-10T01:55:54;21.20;;;10.60;;
24407;SDS011;12542;50.924;4.516;2023-05-10T01:58:28;18.80;;;9.40;;
24407;SDS011;12542;50.924;4.516;2023-05-10T02:00:57;19.02;;;9.73;;
24407;SDS011;12542;50.924;4.516;2023-05-10T02:03:25;17.92;;;10.73;;
24407;SDS011;12542;50.924;4.516;2023-05-10T02:05:53;16.58;;;9.02;;
24407;SDS011;12542;50.924;4.516;2023-05-10T02:08:21;18.30;;;9.90;;
24407;SDS011;12542;50.924;4.516;2023-05-10T02:10:47;22.67;;;10.23;;
24407;SDS011;12542;50.924;4.516;2023-05-10T02:13:16;17.23;;;9.30;;
24407;SDS011;12542;50.924;4.516;2023-05-10T02:15:43;20.00;;;10.27;;
24407;SDS011;12542;50.924;4.516;2023-05-10T02:18:12;17.30;;;9.55;;
24407;SDS011;12542;50.924;4.516;2023-05-10T02:20:38;22.35;;;10.00;;
24407;SDS011;12542;50.924;4.516;2023-05-10T02:23:07;23.75;;;10.38;;
24407;SDS011;12542;50.924;4.516;2023-05-10T02:25:34;20.55;;;9.80;;
24407;SDS011;12542;50.924;4.516;2023-05-10T02:28:01;19.52;;;9.40;;
24407;SDS011;12542;50.924;4.516;2023-05-10T02:30:30;16.08;;;9.98;;
24407;SDS011;12542;50.924;4.516;2023-05-10T02:32:57;20.20;;;10.13;;
24407;SDS011;12542;50.924;4.516;2023-05-10T02:35:24;18.95;;;10.38;;
24407;SDS011;12542;50.924;4.516;2023-05-10T02:37:51;15.88;;;10.07;;
24407;SDS011;12542;50.924;4.516;2023-05-10T02:40:18;16.52;;;9.52;;
24407;SDS011;12542;50.924;4.516;2023-05-10T02:42:47;19.13;;;10.15;;
24407;SDS011;12542;50.924;4.516;2023-05-10T02:45:17;17.20;;;9.90;;
24407;SDS011;12542;50.924;4.516;2023-05-10T02:47:45;19.42;;;10.50;;
24407;SDS011;12542;50.924;4.516;2023-05-10T02:50:11;17.20;;;10.60;;
24407;SDS011;12542;50.924;4.516;2023-05-10T02:52:59;17.95;;;9.25;;
24407;SDS011;12542;50.924;4.516;2023-05-10T02:55:28;22.48;;;11.27;;
24407;SDS011;12542;50.924;4.516;2023-05-10T02:58:01;22.60;;;10.50;;
24407;SDS011;12542;50.924;4.516;2023-05-10T03:00:29;23.15;;;11.30;;
24407;SDS011;12542;50.924;4.516;2023-05-10T03:02:56;24.27;;;10.60;;
24407;SDS011;12542;50.924;4.516;2023-05-10T03:05:22;23.50;;;10.00;;
24407;SDS011;12542;50.924;4.516;2023-05-10T03:07:48;21.60;;;10.07;;
24407;SDS011;12542;50.924;4.516;2023-05-10T03:10:14;18.98;;;9.93;;
24407;SDS011;12542;50.924;4.516;2023-05-10T03:12:50;18.50;;;10.30;;
24407;SDS011;12542;50.924;4.516;2023-05-10T03:18:29;21.38;;;9.98;;
24407;SDS011;12542;50.924;4.516;2023-05-10T03:21:02;16.05;;;10.30;;
24407;SDS011;12542;50.924;4.516;2023-05-10T03:26:00;22.60;;;9.65;;
24407;SDS011;12542;50.924;4.516;2023-05-10T03:28:27;19.88;;;10.80;;
24407;SDS011;12542;50.924;4.516;2023-05-10T03:30:54;20.80;;;10.70;;
24407;SDS011;12542;50.924;4.516;2023-05-10T03:33:21;21.10;;;10.43;;
24407;SDS011;12542;50.924;4.516;2023-05-10T03:35:47;19.05;;;11.13;;
24407;SDS011;12542;50.924;4.516;2023-05-10T03:38:13;22.55;;;10.65;;
24407;SDS011;12542;50.924;4.516;2023-05-10T03:40:38;23.95;;;12.20;;
24407;SDS011;12542;50.924;4.516;2023-05-10T03:43:07;25.13;;;12.07;;
24407;SDS011;12542;50.924;4.516;2023-05-10T03:45:33;24.42;;;12.23;;
24407;SDS011;12542;50.924;4.516;2023-05-10T03:47:58;24.20;;;13.07;;
24407;SDS011;12542;50.924;4.516;2023-05-10T03:50:24;29.48;;;13.02;;
24407;SDS011;12542;50.924;4.516;2023-05-10T03:52:51;26.20;;;13.02;;
24407;SDS011;12542;50.924;4.516;2023-05-10T03:55:16;25.15;;;13.55;;
24407;SDS011;12542;50.924;4.516;2023-05-10T03:57:42;25.23;;;13.38;;
24407;SDS011;12542;50.924;4.516;2023-05-10T04:00:08;24.98;;;13.65;;
24407;SDS011;12542;50.924;4.516;2023-05-10T04:02:34;27.77;;;14.05;;
24407;SDS011;12542;50.924;4.516;2023-05-10T04:05:00;28.52;;;14.05;;
24407;SDS011;12542;50.924;4.516;2023-05-10T04:07:26;29.20;;;15.63;;
24407;SDS011;12542;50.924;4.516;2023-05-10T04:09:52;27.77;;;14.98;;
24407;SDS011;12542;50.924;4.516;2023-05-10T04:12:18;30.77;;;15.55;;
24407;SDS011;12542;50.924;4.516;2023-05-10T04:14:43;36.33;;;15.90;;
24407;SDS011;12542;50.924;4.516;2023-05-10T04:17:09;28.27;;;15.30;;
24407;SDS011;12542;50.924;4.516;2023-05-10T04:19:35;30.20;;;15.93;;
24407;SDS011;12542;50.924;4.516;2023-05-10T04:22:02;30.48;;;15.65;;
24407;SDS011;12542;50.924;4.516;2023-05-10T04:24:28;27.33;;;15.15;;
24407;SDS011;12542;50.924;4.516;2023-05-10T04:26:54;28.55;;;15.52;;
24407;SDS011;12542;50.924;4.516;2023-05-10T04:29:20;33.35;;;16.27;;
24407;SDS011;12542;50.924;4.516;2023-05-10T04:31:45;30.55;;;16.23;;
24407;SDS011;12542;50.924;4.516;2023-05-10T04:34:11;31.58;;;16.67;;
24407;SDS011;12542;50.924;4.516;2023-05-10T04:36:37;30.48;;;15.98;;
24407;SDS011;12542;50.924;4.516;2023-05-10T04:39:03;34.60;;;16.35;;
24407;SDS011;12542;50.924;4.516;2023-05-10T04:41:29;36.03;;;17.00;;
24407;SDS011;12542;50.924;4.516;2023-05-10T04:43:54;35.63;;;17.02;;
24407;SDS011;12542;50.924;4.516;2023-05-10T04:46:20;36.33;;;17.25;;
24407;SDS011;12542;50.924;4.516;2023-05-10T04:48:46;29.75;;;16.45;;
24407;SDS011;12542;50.924;4.516;2023-05-10T04:51:12;35.30;;;18.00;;
24407;SDS011;12542;50.924;4.516;2023-05-10T04:53:38;35.83;;;17.33;;
24407;SDS011;12542;50.924;4.516;2023-05-10T04:56:06;31.60;;;16.65;;
24407;SDS011;12542;50.924;4.516;2023-05-10T04:58:32;36.35;;;16.58;;
24407;SDS011;12542;50.924;4.516;2023-05-10T05:01:04;34.58;;;18.25;;
24407;SDS011;12542;50.924;4.516;2023-05-10T05:03:31;31.00;;;16.40;;
24407;SDS011;12542;50.924;4.516;2023-05-10T05:05:57;31.27;;;16.92;;
24407;SDS011;12542;50.924;4.516;2023-05-10T05:08:23;35.90;;;17.75;;
24407;SDS011;12542;50.924;4.516;2023-05-10T05:10:49;33.65;;;17.92;;
24407;SDS011;12542;50.924;4.516;2023-05-10T05:13:15;33.17;;;16.60;;
24407;SDS011;12542;50.924;4.516;2023-05-10T05:15:41;34.67;;;17.48;;
24407;SDS011;12542;50.924;4.516;2023-05-10T05:18:06;32.50;;;18.05;;
24407;SDS011;12542;50.924;4.516;2023-05-10T05:20:32;38.25;;;17.63;;
24407;SDS011;12542;50.924;4.516;2023-05-10T05:23:01;29.58;;;17.15;;
24407;SDS011;12542;50.924;4.516;2023-05-10T05:25:27;34.38;;;17.30;;
24407;SDS011;12542;50.924;4.516;2023-05-10T05:27:53;32.47;;;17.55;;
24407;SDS011;12542;50.924;4.516;2023-05-10T05:30:21;31.63;;;16.73;;
24407;SDS011;12542;50.924;4.516;2023-05-10T05:32:47;30.75;;;16.95;;
24407;SDS011;12542;50.924;4.516;2023-05-10T05:35:13;33.15;;;16.35;;
24407;SDS011;12542;50.924;4.516;2023-05-10T05:37:38;28.25;;;16.10;;
24407;SDS011;12542;50.924;4.516;2023-05-10T05:40:04;31.42;;;17.65;;
24407;SDS011;12542;50.924;4.516;2023-05-10T05:42:31;30.35;;;16.55;;
24407;SDS011;12542;50.924;4.516;2023-05-10T05:44:57;31.58;;;16.95;;
24407;SDS011;12542;50.924;4.516;2023-05-10T05:47:23;31.80;;;17.17;;
24407;SDS011;12542;50.924;4.516;2023-05-10T05:49:49;28.95;;;16.25;;
24407;SDS011;12542;50.924;4.516;2023-05-10T05:52:14;30.70;;;15.52;;
24407;SDS011;12542;50.924;4.516;2023-05-10T05:54:40;27.33;;;14.85;;
24407;SDS011;12542;50.924;4.516;2023-05-10T05:57:06;28.70;;;15.10;;
24407;SDS011;12542;50.924;4.516;2023-05-10T05:59:32;27.60;;;15.75;;
24407;SDS011;12542;50.924;4.516;2023-05-10T06:01:58;30.00;;;15.88;;
24407;SDS011;12542;50.924;4.516;2023-05-10T06:04:26;25.65;;;15.18;;
24407;SDS011;12542;50.924;4.516;2023-05-10T06:06:52;31.45;;;15.98;;
24407;SDS011;12542;50.924;4.516;2023-05-10T06:09:17;25.90;;;15.07;;
24407;SDS011;12542;50.924;4.516;2023-05-10T06:11:43;29.70;;;15.63;;
24407;SDS011;12542;50.924;4.516;2023-05-10T06:14:09;30.40;;;15.85;;
24407;SDS011;12542;50.924;4.516;2023-05-10T06:16:34;30.38;;;15.90;;
24407;SDS011;12542;50.924;4.516;2023-05-10T06:19:00;27.88;;;15.75;;
24407;SDS011;12542;50.924;4.516;2023-05-10T06:21:26;27.38;;;15.38;;
24407;SDS011;12542;50.924;4.516;2023-05-10T06:23:52;25.60;;;15.07;;
24407;SDS011;12542;50.924;4.516;2023-05-10T06:26:17;25.50;;;15.45;;
24407;SDS011;12542;50.924;4.516;2023-05-10T06:28:43;27.20;;;15.45;;
24407;SDS011;12542;50.924;4.516;2023-05-10T06:31:09;27.27;;;15.63;;
24407;SDS011;12542;50.924;4.516;2023-05-10T06:33:36;23.80;;;14.45;;
24407;SDS011;12542;50.924;4.516;2023-05-10T06:36:02;25.27;;;15.35;;
24407;SDS011;12542;50.924;4.516;2023-05-10T06:38:28;26.52;;;15.82;;
24407;SDS011;12542;50.924;4.516;2023-05-10T06:40:54;25.20;;;13.80;;
24407;SDS011;12542;50.924;4.516;2023-05-10T06:43:20;22.70;;;13.30;;
24407;SDS011;12542;50.924;4.516;2023-05-10T06:45:47;23.08;;;15.32;;
24407;SDS011;12542;50.924;4.516;2023-05-10T06:48:15;24.27;;;15.13;;
24407;SDS011;12542;50.924;4.516;2023-05-10T06:50:41;25.35;;;15.20;;
24407;SDS011;12542;50.924;4.516;2023-05-10T06:53:07;23.75;;;15.32;;
24407;SDS011;12542;50.924;4.516;2023-05-10T06:55:32;29.63;;;15.95;;
24407;SDS011;12542;50.924;4.516;2023-05-10T06:57:58;27.30;;;15.55;;
24407;SDS011;12542;50.924;4.516;2023-05-10T07:00:24;27.38;;;15.43;;
24407;SDS011;12542;50.924;4.516;2023-05-10T07:02:50;25.95;;;15.00;;
24407;SDS011;12542;50.924;4.516;2023-05-10T07:05:16;25.70;;;14.02;;
24407;SDS011;12542;50.924;4.516;2023-05-10T07:07:42;26.40;;;16.25;;
24407;SDS011;12542;50.924;4.516;2023-05-10T07:10:08;27.80;;;15.38;;
24407;SDS011;12542;50.924;4.516;2023-05-10T07:12:34;25.17;;;14.48;;
24407;SDS011;12542;50.924;4.516;2023-05-10T07:14:59;26.67;;;14.88;;
24407;SDS011;12542;50.924;4.516;2023-05-10T07:17:25;29.40;;;15.98;;
24407;SDS011;12542;50.924;4.516;2023-05-10T07:19:51;25.63;;;14.40;;
24407;SDS011;12542;50.924;4.516;2023-05-10T07:22:17;28.55;;;15.70;;
24407;SDS011;12542;50.924;4.516;2023-05-10T07:24:43;31.42;;;16.20;;
24407;SDS011;12542;50.924;4.516;2023-05-10T07:27:09;26.15;;;15.77;;
24407;SDS011;12542;50.924;4.516;2023-05-10T07:29:35;26.88;;;15.38;;
24407;SDS011;12542;50.924;4.516;2023-05-10T07:32:02;27.80;;;13.88;;
24407;SDS011;12542;50.924;4.516;2023-05-10T07:34:33;25.00;;;12.32;;
24407;SDS011;12542;50.924;4.516;2023-05-10T07:36:59;26.00;;;12.38;;
24407;SDS011;12542;50.924;4.516;2023-05-10T07:39:25;24.42;;;11.73;;
24407;SDS011;12542;50.924;4.516;2023-05-10T07:41:51;20.95;;;11.93;;
24407;SDS011;12542;50.924;4.516;2023-05-10T07:44:17;23.50;;;12.68;;
24407;SDS011;12542;50.924;4.516;2023-05-10T07:46:45;28.00;;;12.52;;
24407;SDS011;12542;50.924;4.516;2023-05-10T07:49:11;24.00;;;12.15;;
24407;SDS011;12542;50.924;4.516;2023-05-10T07:51:36;29.70;;;12.38;;
24407;SDS011;12542;50.924;4.516;2023-05-10T07:54:02;23.27;;;12.02;;
24407;SDS011;12542;50.924;4.516;2023-05-10T07:56:31;20.77;;;11.90;;
24407;SDS011;12542;50.924;4.516;2023-05-10T07:59:00;22.35;;;12.07;;
24407;SDS011;12542;50.924;4.516;2023-05-10T08:01:32;24.27;;;11.55;;
24407;SDS011;12542;50.924;4.516;2023-05-10T08:03:59;20.05;;;10.75;;
24407;SDS011;12542;50.924;4.516;2023-05-10T08:06:25;22.17;;;11.88;;
24407;SDS011;12542;50.924;4.516;2023-05-10T08:08:55;21.55;;;11.73;;
24407;SDS011;12542;50.924;4.516;2023-05-10T08:11:21;26.02;;;12.93;;
24407;SDS011;12542;50.924;4.516;2023-05-10T08:13:47;22.10;;;11.52;;
24407;SDS011;12542;50.924;4.516;2023-05-10T08:16:14;18.70;;;10.52;;
24407;SDS011;12542;50.924;4.516;2023-05-10T08:18:40;23.63;;;11.25;;
24407;SDS011;12542;50.924;4.516;2023-05-10T08:21:06;19.88;;;10.80;;
24407;SDS011;12542;50.924;4.516;2023-05-10T08:23:32;21.00;;;10.30;;
24407;SDS011;12542;50.924;4.516;2023-05-10T08:25:58;17.38;;;9.57;;
24407;SDS011;12542;50.924;4.516;2023-05-10T08:28:24;18.25;;;9.00;;
24407;SDS011;12542;50.924;4.516;2023-05-10T08:30:50;20.77;;;9.50;;
24407;SDS011;12542;50.924;4.516;2023-05-10T08:33:17;18.27;;;10.20;;
24407;SDS011;12542;50.924;4.516;2023-05-10T08:35:43;18.60;;;10.68;;
24407;SDS011;12542;50.924;4.516;2023-05-10T08:38:09;17.50;;;9.75;;
24407;SDS011;12542;50.924;4.516;2023-05-10T08:40:36;21.48;;;10.23;;
24407;SDS011;12542;50.924;4.516;2023-05-10T08:43:06;17.75;;;9.60;;
24407;SDS011;12542;50.924;4.516;2023-05-10T08:45:36;21.08;;;9.75;;
24407;SDS011;12542;50.924;4.516;2023-05-10T08:48:07;21.60;;;9.93;;
24407;SDS011;12542;50.924;4.516;2023-05-10T08:50:41;18.67;;;9.85;;
24407;SDS011;12542;50.924;4.516;2023-05-10T08:53:11;16.52;;;8.93;;
24407;SDS011;12542;50.924;4.516;2023-05-10T08:55:38;16.50;;;10.05;;
24407;SDS011;12542;50.924;4.516;2023-05-10T08:58:05;19.20;;;9.80;;
24407;SDS011;12542;50.924;4.516;2023-05-10T09:00:31;16.15;;;8.90;;
24407;SDS011;12542;50.924;4.516;2023-05-10T09:02:58;19.75;;;9.13;;
24407;SDS011;12542;50.924;4.516;2023-05-10T09:05:25;15.80;;;8.90;;
24407;SDS011;12542;50.924;4.516;2023-05-10T09:07:51;14.27;;;8.50;;
24407;SDS011;12542;50.924;4.516;2023-05-10T09:10:18;15.70;;;8.27;;
24407;SDS011;12542;50.924;4.516;2023-05-10T09:12:44;13.25;;;7.53;;
24407;SDS011;12542;50.924;4.516;2023-05-10T09:15:10;13.32;;;7.40;;
24407;SDS011;12542;50.924;4.516;2023-05-10T09:17:39;14.95;;;7.35;;
24407;SDS011;12542;50.924;4.516;2023-05-10T09:20:09;13.02;;;7.72;;
24407;SDS011;12542;50.924;4.516;2023-05-10T09:22:35;12.55;;;7.82;;
24407;SDS011;12542;50.924;4.516;2023-05-10T09:25:05;13.98;;;7.43;;
24407;SDS011;12542;50.924;4.516;2023-05-10T09:27:36;14.30;;;8.25;;
24407;SDS011;12542;50.924;4.516;2023-05-10T09:30:03;14.73;;;7.78;;
24407;SDS011;12542;50.924;4.516;2023-05-10T09:32:40;14.77;;;8.55;;
24407;SDS011;12542;50.924;4.516;2023-05-10T09:35:14;11.55;;;7.05;;
24407;SDS011;12542;50.924;4.516;2023-05-10T09:37:48;14.20;;;7.80;;
24407;SDS011;12542;50.924;4.516;2023-05-10T09:40:26;12.32;;;7.40;;
24407;SDS011;12542;50.924;4.516;2023-05-10T09:45:28;12.75;;;7.68;;
24407;SDS011;12542;50.924;4.516;2023-05-10T09:47:55;11.88;;;7.07;;
24407;SDS011;12542;50.924;4.516;2023-05-10T09:50:22;12.13;;;7.15;;
24407;SDS011;12542;50.924;4.516;2023-05-10T09:52:52;11.40;;;6.80;;
24407;SDS011;12542;50.924;4.516;2023-05-10T09:55:26;11.77;;;6.85;;
24407;SDS011;12542;50.924;4.516;2023-05-10T09:57:58;10.45;;;5.63;;
24407;SDS011;12542;50.924;4.516;2023-05-10T10:00:25;13.75;;;5.93;;
24407;SDS011;12542;50.924;4.516;2023-05-10T10:02:56;8.73;;;5.38;;
24407;SDS011;12542;50.924;4.516;2023-05-10T10:05:28;13.02;;;5.32;;
24407;SDS011;12542;50.924;4.516;2023-05-10T10:07:55;11.88;;;5.68;;
24407;SDS011;12542;50.924;4.516;2023-05-10T10:10:23;9.18;;;5.35;;
24407;SDS011;12542;50.924;4.516;2023-05-10T10:12:50;10.00;;;4.40;;
24407;SDS011;12542;50.924;4.516;2023-05-10T10:15:16;7.18;;;4.63;;
24407;SDS011;12542;50.924;4.516;2023-05-10T10:17:43;7.07;;;4.53;;
24407;SDS011;12542;50.924;4.516;2023-05-10T10:20:09;8.13;;;4.43;;
24407;SDS011;12542;50.924;4.516;2023-05-10T10:22:36;10.40;;;5.00;;
24407;SDS011;12542;50.924;4.516;2023-05-10T10:25:02;9.75;;;4.70;;
24407;SDS011;12542;50.924;4.516;2023-05-10T10:27:44;7.80;;;4.80;;
24407;SDS011;12542;50.924;4.516;2023-05-10T10:35:33;7.40;;;5.30;;
24407;SDS011;12542;50.924;4.516;2023-05-10T10:38:03;6.22;;;4.43;;
24407;SDS011;12542;50.924;4.516;2023-05-10T10:40:30;9.07;;;4.65;;
24407;SDS011;12542;50.924;4.516;2023-05-10T10:42:57;8.40;;;5.15;;
24407;SDS011;12542;50.924;4.516;2023-05-10T10:45:43;7.15;;;4.55;;
24407;SDS011;12542;50.924;4.516;2023-05-10T10:48:22;6.63;;;4.35;;
24407;SDS011;12542;50.924;4.516;2023-05-10T10:50:55;7.70;;;5.18;;
24407;SDS011;12542;50.924;4.516;2023-05-10T10:53:25;7.50;;;4.30;;
24407;SDS011;12542;50.924;4.516;2023-05-10T10:56:02;6.70;;;4.32;;
24407;SDS011;12542;50.924;4.516;2023-05-10T10:58:39;7.30;;;4.80;;
24407;SDS011;12542;50.924;4.516;2023-05-10T11:01:14;7.00;;;4.28;;
24407;SDS011;12542;50.924;4.516;2023-05-10T11:09:31;6.95;;;5.18;;
24407;SDS011;12542;50.924;4.516;2023-05-10T11:12:10;5.65;;;4.50;;
24407;SDS011;12542;50.924;4.516;2023-05-10T11:14:38;7.05;;;4.43;;
24407;SDS011;12542;50.924;4.516;2023-05-10T11:22:53;8.48;;;4.25;;
24407;SDS011;12542;50.924;4.516;2023-05-10T11:25:19;7.13;;;4.63;;
24407;SDS011;12542;50.924;4.516;2023-05-10T11:27:53;6.50;;;4.50;;
24407;SDS011;12542;50.924;4.516;2023-05-10T11:30:18;7.70;;;4.75;;
24407;SDS011;12542;50.924;4.516;2023-05-10T11:32:45;8.20;;;4.80;;
24407;SDS011;12542;50.924;4.516;2023-05-10T11:35:11;5.85;;;4.05;;
24407;SDS011;12542;50.924;4.516;2023-05-10T11:37:38;8.52;;;4.75;;
24407;SDS011;12542;50.924;4.516;2023-05-10T11:40:08;6.70;;;4.22;;
24407;SDS011;12542;50.924;4.516;2023-05-10T11:42:37;6.43;;;4.05;;
24407;SDS011;12542;50.924;4.516;2023-05-10T11:45:03;6.20;;;3.88;;
24407;SDS011;12542;50.924;4.516;2023-05-10T11:47:30;8.52;;;5.80;;
24407;SDS011;12542;50.924;4.516;2023-05-10T11:49:56;7.25;;;4.05;;
24407;SDS011;12542;50.924;4.516;2023-05-10T11:52:22;6.80;;;4.50;;
24407;SDS011;12542;50.924;4.516;2023-05-10T11:54:52;7.00;;;4.47;;
24407;SDS011;12542;50.924;4.516;2023-05-10T11:57:21;7.82;;;5.13;;
24407;SDS011;12542;50.924;4.516;2023-05-10T11:59:55;10.77;;;4.53;;
24407;SDS011;12542;50.924;4.516;2023-05-10T12:02:21;7.85;;;4.10;;
24407;SDS011;12542;50.924;4.516;2023-05-10T12:04:47;7.18;;;4.20;;
24407;SDS011;12542;50.924;4.516;2023-05-10T12:07:13;7.03;;;4.03;;
24407;SDS011;12542;50.924;4.516;2023-05-10T12:09:44;8.48;;;4.43;;
24407;SDS011;12542;50.924;4.516;2023-05-10T12:12:41;8.43;;;4.10;;
24407;SDS011;12542;50.924;4.516;2023-05-10T12:15:27;7.03;;;4.10;;
24407;SDS011;12542;50.924;4.516;2023-05-10T12:17:53;9.93;;;4.85;;
24407;SDS011;12542;50.924;4.516;2023-05-10T12:20:19;7.45;;;4.00;;
24407;SDS011;12542;50.924;4.516;2023-05-10T12:22:47;6.47;;;4.25;;
24407;SDS011;12542;50.924;4.516;2023-05-10T12:25:17;6.55;;;4.22;;
24407;SDS011;12542;50.924;4.516;2023-05-10T12:27:56;6.10;;;4.03;;
24407;SDS011;12542;50.924;4.516;2023-05-10T12:30:23;6.95;;;4.55;;
24407;SDS011;12542;50.924;4.516;2023-05-10T12:33:02;8.40;;;4.70;;
24407;SDS011;12542;50.924;4.516;2023-05-10T12:35:33;12.15;;;5.28;;
24407;SDS011;12542;50.924;4.516;2023-05-10T12:41:04;8.13;;;4.72;;
24407;SDS011;12542;50.924;4.516;2023-05-10T12:43:31;5.55;;;4.35;;
24407;SDS011;12542;50.924;4.516;2023-05-10T12:45:57;7.90;;;4.78;;
24407;SDS011;12542;50.924;4.516;2023-05-10T12:48:23;6.25;;;4.65;;
24407;SDS011;12542;50.924;4.516;2023-05-10T12:50:49;6.75;;;4.45;;
24407;SDS011;12542;50.924;4.516;2023-05-10T12:53:15;9.68;;;4.85;;
24407;SDS011;12542;50.924;4.516;2023-05-10T12:55:44;6.95;;;4.05;;
24407;SDS011;12542;50.924;4.516;2023-05-10T12:58:10;7.45;;;4.50;;
24407;SDS011;12542;50.924;4.516;2023-05-10T13:00:35;6.63;;;4.70;;
24407;SDS011;12542;50.924;4.516;2023-05-10T13:03:03;7.43;;;4.78;;
24407;SDS011;12542;50.924;4.516;2023-05-10T13:05:31;7.20;;;4.53;;
24407;SDS011;12542;50.924;4.516;2023-05-10T13:07:59;8.38;;;5.45;;
24407;SDS011;12542;50.924;4.516;2023-05-10T13:10:25;6.60;;;5.00;;
24407;SDS011;12542;50.924;4.516;2023-05-10T13:12:51;11.00;;;5.57;;
24407;SDS011;12542;50.924;4.516;2023-05-10T13:15:17;9.68;;;5.40;;
24407;SDS011;12542;50.924;4.516;2023-05-10T13:17:42;10.20;;;5.15;;
24407;SDS011;12542;50.924;4.516;2023-05-10T13:20:10;9.27;;;5.93;;
24407;SDS011;12542;50.924;4.516;2023-05-10T13:22:36;9.57;;;5.88;;
24407;SDS011;12542;50.924;4.516;2023-05-10T13:25:02;6.97;;;4.78;;
24407;SDS011;12542;50.924;4.516;2023-05-10T13:27:28;8.13;;;5.20;;
24407;SDS011;12542;50.924;4.516;2023-05-10T13:29:54;6.85;;;4.57;;
24407;SDS011;12542;50.924;4.516;2023-05-10T13:32:20;8.48;;;5.70;;
24407;SDS011;12542;50.924;4.516;2023-05-10T13:34:46;8.68;;;4.60;;
24407;SDS011;12542;50.924;4.516;2023-05-10T13:37:11;6.70;;;4.22;;
24407;SDS011;12542;50.924;4.516;2023-05-10T13:39:37;6.75;;;4.50;;
24407;SDS011;12542;50.924;4.516;2023-05-10T13:42:03;11.00;;;4.28;;
24407;SDS011;12542;50.924;4.516;2023-05-10T13:44:29;6.50;;;4.53;;
24407;SDS011;12542;50.924;4.516;2023-05-10T13:46:55;6.70;;;4.53;;
24407;SDS011;12542;50.924;4.516;2023-05-10T13:49:22;6.28;;;4.13;;
24407;SDS011;12542;50.924;4.516;2023-05-10T13:51:47;4.80;;;3.10;;
24407;SDS011;12542;50.924;4.516;2023-05-10T13:54:13;5.47;;;3.40;;
24407;SDS011;12542;50.924;4.516;2023-05-10T13:56:39;5.68;;;3.78;;
24407;SDS011;12542;50.924;4.516;2023-05-10T13:59:08;6.15;;;3.17;;
24407;SDS011;12542;50.924;4.516;2023-05-10T14:01:34;7.72;;;3.50;;
24407;SDS011;12542;50.924;4.516;2023-05-10T14:04:00;7.40;;;3.63;;
24407;SDS011;12542;50.924;4.516;2023-05-10T14:06:25;8.45;;;3.88;;
24407;SDS011;12542;50.924;4.516;2023-05-10T14:08:52;8.48;;;3.78;;
24407;SDS011;12542;50.924;4.516;2023-05-10T14:11:18;11.25;;;4.72;;
24407;SDS011;12542;50.924;4.516;2023-05-10T14:13:44;6.55;;;4.10;;
24407;SDS011;12542;50.924;4.516;2023-05-10T14:16:10;6.50;;;4.22;;
24407;SDS011;12542;50.924;4.516;2023-05-10T14:18:36;9.02;;;5.07;;
24407;SDS011;12542;50.924;4.516;2023-05-10T14:21:03;11.70;;;5.10;;
24407;SDS011;12542;50.924;4.516;2023-05-10T14:23:29;11.85;;;4.80;;
24407;SDS011;12542;50.924;4.516;2023-05-10T14:25:57;8.55;;;5.28;;
24407;SDS011;12542;50.924;4.516;2023-05-10T14:28:22;8.35;;;5.07;;
24407;SDS011;12542;50.924;4.516;2023-05-10T14:30:49;9.10;;;5.07;;
24407;SDS011;12542;50.924;4.516;2023-05-10T14:33:16;8.90;;;5.35;;
24407;SDS011;12542;50.924;4.516;2023-05-10T14:35:42;10.75;;;5.72;;
24407;SDS011;12542;50.924;4.516;2023-05-10T14:38:07;11.15;;;5.72;;
24407;SDS011;12542;50.924;4.516;2023-05-10T14:40:33;13.70;;;7.32;;
24407;SDS011;12542;50.924;4.516;2023-05-10T14:42:59;9.88;;;6.93;;
24407;SDS011;12542;50.924;4.516;2023-05-10T14:45:27;12.65;;;7.55;;
24407;SDS011;12542;50.924;4.516;2023-05-10T14:47:53;13.35;;;7.68;;
24407;SDS011;12542;50.924;4.516;2023-05-10T14:50:19;10.55;;;7.25;;
24407;SDS011;12542;50.924;4.516;2023-05-10T14:52:44;12.35;;;7.68;;
24407;SDS011;12542;50.924;4.516;2023-05-10T14:55:10;11.30;;;7.32;;
24407;SDS011;12542;50.924;4.516;2023-05-10T14:57:36;13.07;;;7.85;;
24407;SDS011;12542;50.924;4.516;2023-05-10T15:00:02;12.93;;;7.45;;
24407;SDS011;12542;50.924;4.516;2023-05-10T15:02:30;13.68;;;7.53;;
24407;SDS011;12542;50.924;4.516;2023-05-10T15:04:56;14.75;;;7.72;;
24407;SDS011;12542;50.924;4.516;2023-05-10T15:07:22;11.65;;;7.35;;
24407;SDS011;12542;50.924;4.516;2023-05-10T15:09:49;13.80;;;7.75;;
24407;SDS011;12542;50.924;4.516;2023-05-10T15:12:16;11.23;;;7.53;;
24407;SDS011;12542;50.924;4.516;2023-05-10T15:14:42;14.70;;;7.60;;
24407;SDS011;12542;50.924;4.516;2023-05-10T15:17:08;13.70;;;7.30;;
24407;SDS011;12542;50.924;4.516;2023-05-10T15:19:34;16.95;;;9.90;;